Time;durP1;ratioP1;P1;durP2;ratioP2;P2;SDS_P1;SDS_P2;PMS_P1;PMS_P2;Temp;Humidity;BMP_temperature;BMP_pressure;BME280_temperature;BME280_humidity;BME280_pressure;Samples;Min_cycle;Max_cycle;Signal;HPM_P1;HPM_P2
2022/11/25 00:00:16;;;;;;;;;2.50;2.50;;;;;9.33;96.65;100076.78;6222548;22;45266;-92
2022/11/25 00:02:46;;;;;;;;;4.50;3.50;;;;;9.98;96.50;100198.47;6194058;22;45305;-92
2022/11/25 00:05:20;;;;;;;;;2.00;2.00;;;;;8.40;96.79;99922.44;6194593;22;45317;-92
2022/11/25 00:07:52;;;;;;;;;1.75;1.50;;;;;9.91;96.76;100180.09;6193945;22;46285;-92
2022/11/25 00:10:17;;;;;;;;;4.00;3.00;;;;;10.38;96.95;100264.44;6172628;22;44561;-92
2022/11/25 00:12:44;;;;;;;;;5.00;3.00;;;;;10.38;97.13;100251.22;6190404;22;45201;-91
2022/11/25 00:15:09;;;;;;;;;3.00;2.75;;;;;8.80;96.73;99984.81;6196572;22;45346;-92
2022/11/25 00:17:47;;;;;;;;;;;;;;;;;;;;;
2022/11/25 00:23:48;;;;;;;;;4.00;2.50;;;;;8.78;96.58;99993.66;6135096;23;45206;-90
2022/11/25 00:26:57;;;;;;;;;2.00;2.00;;;;;10.40;97.00;100248.53;6128335;23;45321;-91
2022/11/25 00:29:32;;;;;;;;;2.00;1.00;;;;;9.12;96.90;100048.28;6126799;23;45539;-92
2022/11/25 00:32:56;;;;;;;;;3.00;2.00;;;;;10.38;97.03;100259.16;6127982;23;45346;-91
2022/11/25 00:35:23;;;;;;;;;3.00;1.75;;;;;8.66;96.85;99982.47;6135009;23;45278;-92
2022/11/25 00:37:49;;;;;;;;;2.00;1.50;;;;;9.36;96.39;100087.25;6138123;23;45294;-93
2022/11/25 00:40:15;;;;;;;;;3.75;2.75;;;;;10.36;97.10;100260.97;6136474;23;46268;-93
2022/11/25 00:45:36;;;;;;;;;4.75;3.00;;;;;8.91;97.27;100032.00;6130946;23;45227;-93
2022/11/25 00:48:02;;;;;;;;;4.00;3.00;;;;;8.98;97.08;100049.44;6131773;23;45411;-91
2022/11/25 00:50:35;;;;;;;;;1.50;1.50;;;;;9.52;96.97;100115.94;6141459;23;47219;-91
2022/11/25 00:53:03;;;;;;;;;2.50;2.50;;;;;8.83;97.09;100026.91;6135168;23;45273;-91
2022/11/25 00:56:11;;;;;;;;;2.75;2.75;;;;;9.95;97.01;100228.44;6103997;23;45412;-91
2022/11/25 00:58:18;;;;;;;;;2.25;1.75;;;;;10.31;97.41;100278.69;6205990;22;45200;-91
2022/11/25 01:00:45;;;;;;;;;2.00;2.00;;;;;9.53;97.05;100152.81;6229245;22;45229;-92
2022/11/25 01:03:11;;;;;;;;;4.00;2.00;;;;;8.83;97.34;100037.44;6196613;22;44735;-90
2022/11/25 01:05:36;;;;;;;;;5.25;2.75;;;;;9.49;97.17;100160.84;6176275;22;45460;-92
2022/11/25 01:08:03;;;;;;;;;4.00;2.00;;;;;9.19;97.31;100110.53;6205845;22;45188;-91
2022/11/25 01:10:30;;;;;;;;;3.00;3.00;;;;;9.00;96.97;100091.56;6198640;22;46975;-92
2022/11/25 01:12:57;;;;;;;;;3.00;3.00;;;;;9.85;97.44;100242.75;6201301;22;44686;-90
2022/11/25 01:15:22;;;;;;;;;2.00;2.00;;;;;9.04;97.53;100112.56;6200083;22;44657;-91
2022/11/25 01:17:49;;;;;;;;;2.25;1.25;;;;;9.03;97.40;100126.66;6203905;22;44825;-92
2022/11/25 01:20:18;;;;;;;;;3.50;2.00;;;;;9.70;97.41;100255.41;6204019;22;47260;-92
2022/11/25 01:22:43;;;;;;;;;2.50;2.50;;;;;9.60;97.27;100240.66;6203396;22;45243;-92
2022/11/25 01:25:12;;;;;;;;;2.75;2.75;;;;;9.68;97.14;100261.59;6201528;22;45339;-91
2022/11/25 01:27:41;;;;;;;;;1.25;1.25;;;;;8.49;97.16;100071.53;6198687;22;45228;-93
2022/11/25 01:30:08;;;;;;;;;3.00;2.00;;;;;8.65;97.61;100104.56;6200286;22;47554;-90
2022/11/25 01:32:33;;;;;;;;;3.00;2.25;;;;;8.38;97.16;100082.25;6203365;22;45279;-91
2022/11/25 01:35:05;;;;;;;;;0.00;0.00;;;;;9.03;97.73;100189.94;6200998;22;45230;-91
2022/11/25 01:37:32;;;;;;;;;3.00;3.00;;;;;9.31;97.83;100254.44;6191480;22;45359;-92
2022/11/25 01:39:57;;;;;;;;;4.00;1.50;;;;;7.85;97.28;100011.25;6190227;22;46918;-92
2022/11/25 01:42:29;;;;;;;;;2.00;2.00;;;;;9.36;97.97;100287.72;6190575;22;45575;-90
2022/11/25 01:45:25;;;;;;;;;2.00;2.00;;;;;9.70;98.02;100341.59;6190996;22;45346;-90
2022/11/25 01:48:10;;;;;;;;;;;;;;;;;;;;;
2022/11/25 01:50:39;;;;;;;;;2.75;2.00;;;;;9.49;97.99;100334.97;6211168;22;73947;-90
2022/11/25 01:53:09;;;;;;;;;3.00;3.00;;;;;8.50;98.06;100168.97;6194971;22;45236;-91
2022/11/25 01:55:39;;;;;;;;;3.00;1.00;;;;;9.19;98.27;100295.09;6195375;22;45200;-92
2022/11/25 01:58:10;;;;;;;;;1.00;1.00;;;;;7.81;97.83;100073.56;6200435;22;45268;-92
2022/11/25 02:01:00;;;;;;;;;;;;;;;;;;;;;
2022/11/25 02:03:44;;;;;;;;;1.25;0.50;;;;;9.46;98.15;100353.50;6224770;22;71782;-92
2022/11/25 02:06:17;;;;;;;;;2.50;2.00;;;;;9.15;97.84;100327.69;6221754;22;45126;-92
2022/11/25 02:08:59;;;;;;;;;4.50;2.00;;;;;7.75;97.95;100078.06;6195409;22;45248;-93
2022/11/25 02:18:16;;;;;;;;;1.75;1.75;;;;;8.64;97.89;100274.09;6175096;22;44927;-91
2022/11/25 02:20:50;;;;;;;;;1.75;1.75;;;;;8.59;97.70;100278.56;6174237;23;44755;-92
2022/11/25 02:23:48;;;;;;;;;3.25;2.00;;;;;9.23;98.69;100370.59;6168877;23;46625;-91
2022/11/25 02:26:24;;;;;;;;;1.00;1.00;;;;;8.57;98.19;100285.63;6145498;23;45238;-90
2022/11/25 02:28:52;;;;;;;;;4.50;3.00;;;;;8.60;98.30;100293.47;6142013;23;44935;-92
2022/11/25 02:31:26;;;;;;;;;2.50;2.00;;;;;8.25;97.61;100244.84;6172191;23;44826;-93
2022/11/25 02:34:04;;;;;;;;;0.25;0.25;;;;;8.32;98.30;100250.88;6141841;23;46130;-92
2022/11/25 02:36:30;;;;;;;;;2.00;2.00;;;;;9.14;98.36;100392.75;6160093;23;45504;-93
2022/11/25 02:39:08;;;;;;;;;3.50;2.75;;;;;8.52;98.45;100313.81;6159640;23;45310;-93
2022/11/25 02:41:46;;;;;;;;;4.75;3.00;;;;;8.76;98.50;100349.44;6168562;23;45271;-92
2022/11/25 02:44:17;;;;;;;;;1.25;1.25;;;;;7.49;98.32;100152.97;6161070;23;46659;-93
2022/11/25 02:46:43;;;;;;;;;2.00;2.00;;;;;7.84;97.90;100214.75;6163351;23;45331;-93
2022/11/25 02:49:08;;;;;;;;;3.50;2.00;;;;;7.55;98.37;100166.03;6166772;23;45325;-92
2022/11/25 02:51:42;;;;;;;;;1.50;1.00;;;;;8.18;98.57;100272.16;6174736;22;45410;-91
2022/11/25 02:54:10;;;;;;;;;0.75;0.75;;;;;9.01;98.46;100428.13;6193774;22;48026;-92
2022/11/25 02:56:39;;;;;;;;;1.00;1.00;;;;;7.93;98.34;100246.19;6189687;22;45231;-91
2022/11/25 02:59:05;;;;;;;;;2.50;2.50;;;;;8.61;98.29;100379.53;6168909;22;45216;-91
2022/11/25 03:05:23;;;;;;;;;3.75;2.00;;;;;8.95;98.24;100433.50;6221722;22;45191;-89
2022/11/25 03:08:00;;;;;;;;;2.00;2.00;;;;;7.83;98.38;100265.63;6219531;22;45180;-91
2022/11/25 03:10:28;;;;;;;;;1.00;1.00;;;;;8.92;98.47;100433.53;6223383;22;45207;-92
2022/11/25 03:12:55;;;;;;;;;1.00;1.00;;;;;8.89;98.48;100434.44;6189141;22;45461;-90
2022/11/25 03:15:23;;;;;;;;;4.00;2.00;;;;;8.88;98.56;100453.78;6190929;22;47037;-92
2022/11/25 03:17:50;;;;;;;;;1.00;1.00;;;;;8.88;98.38;100464.31;6221624;22;45411;-90
2022/11/25 03:20:16;;;;;;;;;2.00;2.00;;;;;8.22;98.79;100352.84;6196180;22;45384;-91
2022/11/25 03:22:42;;;;;;;;;1.00;1.00;;;;;7.79;98.69;100270.06;6193253;22;45325;-91
2022/11/25 03:25:09;;;;;;;;;3.00;2.00;;;;;8.23;98.45;100365.13;6189273;22;48078;-91
2022/11/25 03:27:36;;;;;;;;;3.50;2.00;;;;;8.83;98.48;100468.81;6199342;22;45188;-91
2022/11/25 03:30:05;;;;;;;;;1.75;1.25;;;;;7.16;98.16;100184.06;6197005;22;45220;-91
2022/11/25 03:32:34;;;;;;;;;1.00;1.00;;;;;7.99;98.61;100335.59;6218528;22;45401;-91
2022/11/25 03:35:00;;;;;;;;;2.25;2.00;;;;;7.78;98.24;100320.09;6193084;22;46904;-92
2022/11/25 03:37:28;;;;;;;;;2.00;2.00;;;;;8.22;98.39;100368.63;6195129;22;45292;-91
2022/11/25 03:39:57;;;;;;;;;2.00;2.00;;;;;7.21;98.41;100223.44;6188988;22;45338;-90
2022/11/25 03:42:22;;;;;;;;;2.25;2.25;;;;;8.48;98.81;100449.09;6188138;22;45260;-91
2022/11/25 03:44:48;;;;;;;;;3.00;1.50;;;;;8.39;98.30;100433.38;6195431;22;47082;-91
2022/11/25 03:47:13;;;;;;;;;2.00;2.00;;;;;7.93;98.44;100383.03;6198812;22;45203;-91
2022/11/25 03:49:43;;;;;;;;;3.00;3.00;;;;;8.02;98.01;100392.59;6202530;22;45267;-90
2022/11/25 03:52:09;;;;;;;;;2.00;2.00;;;;;6.93;98.70;100202.75;6192393;22;45314;-91
2022/11/25 03:54:38;;;;;;;;;2.00;2.00;;;;;8.71;98.84;100520.81;6196938;22;47078;-91
2022/11/25 03:57:06;;;;;;;;;1.25;1.00;;;;;7.99;98.47;100388.22;6197340;22;45346;-91
2022/11/25 03:59:31;;;;;;;;;3.25;2.00;;;;;8.10;98.43;100426.72;6224032;22;45165;-92
2022/11/25 04:01:59;;;;;;;;;2.00;2.00;;;;;8.66;98.61;100517.34;6218369;22;45196;-90
2022/11/25 04:04:25;;;;;;;;;2.25;1.00;;;;;8.66;99.18;100527.03;6203182;22;47434;-92
2022/11/25 04:06:52;;;;;;;;;2.50;2.00;;;;;8.65;98.50;100526.13;6202330;22;45459;-91
2022/11/25 04:09:21;;;;;;;;;2.75;1.50;;;;;7.79;98.60;100372.69;6222046;22;45266;-90
2022/11/25 04:14:36;;;;;;;;;3.00;1.50;;;;;7.58;98.75;100341.38;6224057;22;45276;-91
2022/11/25 04:17:02;;;;;;;;;3.00;1.75;;;;;7.52;98.65;100329.16;6199040;22;45391;-91
2022/11/25 04:19:30;;;;;;;;;2.00;2.00;;;;;7.49;98.84;100329.19;6223657;22;45213;-90
2022/11/25 04:22:22;;;;;;;;;2.50;2.00;;;;;8.56;98.92;100526.25;6223884;22;45564;-93
2022/11/25 04:24:51;;;;;;;;;2.00;2.00;;;;;7.39;98.64;100327.53;6196952;22;45400;-91
2022/11/25 04:27:16;;;;;;;;;2.00;1.75;;;;;8.56;98.77;100555.22;6195923;22;45223;-91
2022/11/25 04:29:42;;;;;;;;;3.75;1.50;;;;;8.56;99.08;100543.81;6175093;22;45215;-92
2022/11/25 04:32:13;;;;;;;;;3.50;3.50;;;;;8.24;98.86;100519.56;6199423;22;45192;-92
2022/11/25 04:34:39;;;;;;;;;2.75;2.75;;;;;8.52;99.36;100548.28;6173571;22;47153;-90
2022/11/25 04:37:04;;;;;;;;;3.25;3.25;;;;;7.86;99.30;100441.91;6204532;22;45457;-91
2022/11/25 04:39:31;;;;;;;;;2.50;1.50;;;;;8.11;98.83;100491.66;6201949;22;44746;-92
2022/11/25 04:44:45;;;;;;;;;3.00;2.00;;;;;7.83;98.97;100455.97;6186221;22;45294;-91
2022/11/25 04:47:12;;;;;;;;;1.75;1.50;;;;;7.45;98.46;100419.50;6199587;22;45852;-91
2022/11/25 04:49:43;;;;;;;;;4.00;2.25;;;;;8.05;98.75;100518.00;6203682;22;44745;-91
2022/11/25 04:52:09;;;;;;;;;4.00;2.00;;;;;7.35;98.94;100386.28;6225948;22;45107;-90
2022/11/25 04:54:35;;;;;;;;;2.75;2.75;;;;;8.40;99.16;100596.66;6195842;22;46028;-91
2022/11/25 04:57:13;;;;;;;;;3.00;1.25;;;;;6.92;98.63;100340.25;6192416;22;45359;-91
2022/11/25 04:59:43;;;;;;;;;2.00;1.25;;;;;8.40;98.79;100580.00;6198782;22;45372;-91
2022/11/25 05:02:23;;;;;;;;;5.25;3.00;;;;;8.38;98.99;100584.38;6198016;22;45358;-91
2022/11/25 05:04:52;;;;;;;;;5.00;2.75;;;;;7.61;98.73;100451.81;6200278;22;47483;-91
2022/11/25 05:07:23;;;;;;;;;3.00;3.00;;;;;7.60;98.81;100466.72;6191866;22;45291;-91
2022/11/25 05:09:52;;;;;;;;;2.00;2.00;;;;;7.95;98.58;100520.75;6218658;22;45298;-90
2022/11/25 05:12:22;;;;;;;;;7.00;4.00;;;;;8.33;98.94;100603.72;6165344;22;45260;-90
2022/11/25 05:14:49;;;;;;;;;2.25;2.00;;;;;6.55;98.90;100295.91;6192711;22;45610;-92
2022/11/25 05:17:21;;;;;;;;;1.50;1.00;;;;;8.32;98.67;100598.47;6195238;22;45395;-91
2022/11/25 05:19:49;;;;;;;;;1.50;1.50;;;;;7.52;98.89;100486.97;6195146;22;45375;-91
2022/11/25 05:22:19;;;;;;;;;2.00;2.00;;;;;7.90;98.88;100561.19;6195468;22;45211;-92
2022/11/25 05:24:45;;;;;;;;;2.75;2.50;;;;;7.91;98.25;100562.91;6190731;22;47316;-91
2022/11/25 05:27:11;;;;;;;;;3.00;3.00;;;;;6.82;98.45;100372.72;6227890;22;45298;-92
2022/11/25 05:29:38;;;;;;;;;2.00;2.00;;;;;7.86;98.95;100573.47;6198951;22;45389;-91
2022/11/25 05:32:05;;;;;;;;;2.25;2.25;;;;;7.19;98.94;100446.06;6193011;22;45295;-90
2022/11/25 05:34:31;;;;;;;;;2.75;2.75;;;;;7.88;98.74;100563.81;6194811;22;48361;-91
2022/11/25 05:37:01;;;;;;;;;3.25;3.00;;;;;7.43;98.80;100519.47;6197479;22;45224;-92
2022/11/25 05:39:27;;;;;;;;;2.00;2.00;;;;;6.82;98.28;100394.66;6165115;22;45360;-91
2022/11/25 05:41:55;;;;;;;;;4.25;2.50;;;;;6.60;98.72;100366.78;6194342;22;45566;-91
2022/11/25 05:44:26;;;;;;;;;2.00;2.00;;;;;7.81;99.15;100567.38;6199744;22;45533;-91
2022/11/25 05:46:55;;;;;;;;;3.50;3.25;;;;;6.42;99.06;100352.03;6198767;22;45305;-92
2022/11/25 05:49:25;;;;;;;;;4.75;4.75;;;;;7.53;99.01;100548.31;6204352;22;45213;-91
2022/11/25 05:51:51;;;;;;;;;3.00;3.00;;;;;6.68;98.83;100399.09;6201457;22;45472;-90
2022/11/25 05:54:17;;;;;;;;;3.25;3.00;;;;;6.50;99.11;100371.22;6199162;22;46422;-92
2022/11/25 05:56:44;;;;;;;;;5.75;4.00;;;;;8.17;99.62;100650.44;6199921;22;45351;-91
2022/11/25 05:59:11;;;;;;;;;2.00;2.00;;;;;7.64;99.22;100573.66;6198728;22;45424;-92
2022/11/25 06:01:38;;;;;;;;;7.50;3.25;;;;;7.73;98.90;100587.63;6192623;22;45172;-90
2022/11/25 06:04:05;;;;;;;;;2.00;2.00;;;;;7.13;99.22;100510.03;6191920;22;46265;-90
2022/11/25 06:06:52;;;;;;;;;3.00;3.00;;;;;6.49;99.39;100391.34;6193370;22;45231;-91
2022/11/25 06:09:22;;;;;;;;;2.50;2.50;;;;;6.21;99.56;100359.16;6213103;22;45413;-93
2022/11/25 06:11:53;;;;;;;;;3.00;3.00;;;;;7.67;98.90;100619.25;6190343;22;45449;-92
2022/11/25 06:14:26;;;;;;;;;3.50;3.00;;;;;7.33;99.53;100580.03;6196483;22;47392;-91
2022/11/25 06:16:57;;;;;;;;;4.50;4.00;;;;;6.46;98.93;100420.25;6204498;22;45312;-91
2022/11/25 06:19:24;;;;;;;;;3.50;3.25;;;;;6.31;99.22;100391.47;6204150;22;45224;-91
2022/11/25 06:21:50;;;;;;;;;4.00;3.00;;;;;7.63;99.29;100634.19;6206378;22;45204;-93
2022/11/25 06:24:16;;;;;;;;;2.25;2.25;;;;;7.25;99.01;100578.31;6175310;22;47811;-91
2022/11/25 06:26:49;;;;;;;;;5.00;2.50;;;;;6.29;99.15;100424.75;6196206;22;45348;-90
2022/11/25 06:29:22;;;;;;;;;4.00;3.00;;;;;6.92;99.17;100534.69;6194248;22;45284;-92
2022/11/25 06:31:58;;;;;;;;;4.00;4.00;;;;;7.46;99.00;100621.16;6169089;22;45546;-90
2022/11/25 06:34:26;;;;;;;;;2.25;2.25;;;;;7.92;99.31;100726.06;6191400;22;47114;-92
2022/11/25 06:36:54;;;;;;;;;3.00;2.75;;;;;6.27;98.78;100444.84;6192739;22;45459;-91
2022/11/25 06:39:36;;;;;;;;;3.50;3.00;;;;;7.29;99.16;100626.50;6222608;22;45425;-92
2022/11/25 06:42:02;;;;;;;;;2.00;2.00;;;;;6.76;98.80;100536.56;6194694;22;45456;-93
2022/11/25 06:44:28;;;;;;;;;2.25;2.00;;;;;7.86;99.28;100734.00;6199654;22;46554;-91
2022/11/25 06:46:57;;;;;;;;;2.00;2.00;;;;;6.36;99.08;100484.19;6225563;22;44833;-91
2022/11/25 06:49:23;;;;;;;;;3.00;2.00;;;;;6.07;98.73;100435.31;6208480;22;44592;-93
2022/11/25 06:51:51;;;;;;;;;5.00;5.00;;;;;6.82;98.95;100561.91;6229418;22;45160;-92
2022/11/25 06:54:16;;;;;;;;;4.00;3.00;;;;;6.97;98.46;100603.00;6194749;22;46277;-92
2022/11/25 06:57:02;;;;;;;;;5.50;4.00;;;;;7.41;98.99;100662.34;6194666;22;45402;-93
2022/11/25 06:59:28;;;;;;;;;6.50;4.00;;;;;7.38;99.44;100688.69;6173717;22;45264;-90
2022/11/25 07:01:55;;;;;;;;;3.00;3.00;;;;;7.78;99.01;100736.69;6196945;22;45452;-90
2022/11/25 07:04:21;;;;;;;;;3.50;2.00;;;;;5.84;98.82;100409.13;6193256;22;46949;-91
2022/11/25 07:06:48;;;;;;;;;5.00;4.00;;;;;5.96;98.47;100434.44;6187937;22;45238;-92
2022/11/25 07:09:15;;;;;;;;;5.25;3.00;;;;;6.74;98.91;100559.31;6181331;23;45488;-91
2022/11/25 07:11:42;;;;;;;;;6.50;3.00;;;;;7.26;98.74;100653.69;6159853;23;45197;-91
2022/11/25 07:14:12;;;;;;;;;9.00;5.50;;;;;7.39;99.20;100693.06;6163489;23;47135;-91
2022/11/25 07:16:40;;;;;;;;;5.25;2.75;;;;;7.16;98.74;100637.97;6172785;23;45229;-91
2022/11/25 07:19:06;;;;;;;;;4.75;3.25;;;;;6.58;98.73;100545.38;6168189;23;45488;-91
2022/11/25 07:21:33;;;;;;;;;4.25;0.00;;;;;6.90;98.61;100597.78;6138897;23;45541;-90
2022/11/25 07:24:00;;;;;;;;;8.00;6.50;;;;;7.35;98.87;100683.44;6166480;23;47121;-89
2022/11/25 07:26:32;;;;;;;;;5.25;3.00;;;;;7.52;98.69;100718.44;6162951;23;45345;-91
2022/11/25 07:29:03;;;;;;;;;6.75;6.25;;;;;7.77;98.67;100766.53;6161186;23;45394;-93
2022/11/25 07:31:43;;;;;;;;;;;;;;;;;;;;;
2022/11/25 07:34:38;;;;;;;;;7.75;6.25;;;;;6.52;98.64;100579.56;6193650;23;74269;-92
2022/11/25 07:37:29;;;;;;;;;3.50;3.50;;;;;7.82;98.34;100785.81;6138551;23;45399;-90
2022/11/25 07:39:55;;;;;;;;;6.25;6.25;;;;;6.99;98.63;100654.69;6159821;23;45318;-92
2022/11/25 07:42:21;;;;;;;;;5.50;5.50;;;;;7.86;98.72;100776.13;6189945;23;45228;-90
2022/11/25 07:44:50;;;;;;;;;5.50;3.25;;;;;5.83;98.30;100441.47;6167981;23;46576;-90
2022/11/25 07:47:15;;;;;;;;;4.00;3.75;;;;;5.98;97.99;100461.56;6171317;23;45264;-89
2022/11/25 07:49:43;;;;;;;;;6.75;6.75;;;;;7.36;98.07;100700.97;6170414;23;45327;-93
2022/11/25 07:52:09;;;;;;;;;4.00;4.00;;;;;7.21;98.49;100663.38;6173020;23;45260;-90
2022/11/25 07:54:35;;;;;;;;;4.00;4.00;;;;;6.10;97.79;100493.03;6198481;23;46602;-92
2022/11/25 07:57:22;;;;;;;;;4.00;3.00;;;;;8.11;98.12;100833.91;6202462;23;45173;-93
2022/11/25 07:59:48;;;;;;;;;4.00;4.00;;;;;6.77;97.91;100593.44;6185100;23;45446;-91
2022/11/25 08:02:14;;;;;;;;;8.00;5.00;;;;;7.05;98.13;100638.03;6190311;23;45264;-91
2022/11/25 08:04:39;;;;;;;;;6.25;5.00;;;;;7.20;98.26;100658.97;6164088;23;45426;-90
2022/11/25 08:07:05;;;;;;;;;2.00;2.00;;;;;7.29;98.24;100685.22;6164781;23;45216;-91
2022/11/25 08:09:30;;;;;;;;;6.00;5.25;;;;;7.50;98.18;100720.19;6190278;23;45294;-91
2022/11/25 08:11:59;;;;;;;;;3.75;3.75;;;;;6.98;97.92;100644.19;6170883;23;45276;-90
2022/11/25 08:14:26;;;;;;;;;7.50;4.75;;;;;7.29;97.66;100732.56;6173287;23;46098;-90
2022/11/25 08:16:51;;;;;;;;;5.75;4.00;;;;;8.31;97.70;100894.34;6170236;23;45733;-90
2022/11/25 08:19:18;;;;;;;;;3.00;3.00;;;;;7.93;97.22;100819.94;6166563;23;45325;-90
2022/11/25 08:21:46;;;;;;;;;4.00;3.00;;;;;7.16;97.50;100696.66;6162652;23;45574;-89
2022/11/25 08:24:18;;;;;;;;;5.25;5.25;;;;;6.63;97.83;100598.75;6166956;23;47873;-90
2022/11/25 08:26:47;;;;;;;;;5.25;5.25;;;;;8.40;97.75;100882.91;6192631;23;45314;-91
2022/11/25 08:29:15;;;;;;;;;6.00;3.50;;;;;7.40;97.71;100718.50;6158890;23;45208;-90
2022/11/25 08:31:41;;;;;;;;;4.50;4.25;;;;;7.10;97.60;100662.53;6158004;23;45635;-91
2022/11/25 08:34:16;;;;;;;;;8.25;5.25;;;;;8.18;97.63;100854.94;6160362;23;46112;-90
2022/11/25 08:36:42;;;;;;;;;5.50;5.50;;;;;7.47;97.49;100725.47;6190162;23;45281;-89
2022/11/25 08:39:11;;;;;;;;;4.50;4.00;;;;;8.05;97.49;100812.84;6190817;23;44768;-90
2022/11/25 08:42:26;;;;;;;;;7.00;7.00;;;;;8.14;97.75;100818.09;6168445;23;45592;-91
2022/11/25 08:45:15;;;;;;;;;5.00;5.00;;;;;8.62;97.18;100900.31;6175729;23;46640;-90
2022/11/25 08:48:01;;;;;;;;;3.75;3.00;;;;;8.52;97.62;100878.44;6171219;23;45340;-91
2022/11/25 08:50:35;;;;;;;;;4.25;4.25;;;;;7.61;97.17;100722.78;6165287;23;44740;-91
2022/11/25 08:53:04;;;;;;;;;5.50;5.50;;;;;7.30;97.12;100675.56;6161023;23;45185;-90
2022/11/25 08:55:52;;;;;;;;;;;;;;;;;;;;;
2022/11/25 08:58:29;;;;;;;;;6.00;3.75;;;;;8.90;96.92;100942.31;6190179;23;45280;-91
2022/11/25 09:01:09;;;;;;;;;5.25;5.25;;;;;8.95;96.87;100924.69;6190708;23;45410;-91
2022/11/25 09:03:44;;;;;;;;;7.00;6.50;;;;;8.47;97.00;100832.84;6197019;23;45261;-92
2022/11/25 09:06:13;;;;;;;;;6.50;4.75;;;;;8.06;97.20;100757.59;6166692;23;46803;-91
2022/11/25 09:08:48;;;;;;;;;4.00;3.25;;;;;7.69;96.35;100689.38;6182064;22;45291;-91
2022/11/25 09:11:18;;;;;;;;;9.75;6.75;;;;;7.66;96.27;100657.84;6196497;22;45260;-90
2022/11/25 09:13:45;;;;;;;;;6.50;4.00;;;;;9.49;95.56;100952.38;6197835;22;45275;-90
2022/11/25 09:16:20;;;;;;;;;5.00;5.00;;;;;9.00;95.64;100821.84;6190636;22;47315;-90
2022/11/25 09:18:50;;;;;;;;;7.25;4.75;;;;;9.91;94.88;100961.59;6217006;22;45365;-90
2022/11/25 09:21:23;;;;;;;;;4.25;4.25;;;;;8.56;94.53;100705.41;6193628;22;45200;-90
2022/11/25 09:23:53;;;;;;;;;5.50;4.00;;;;;9.18;94.15;100786.50;6188748;22;45650;-90
2022/11/25 09:26:22;;;;;;;;;5.00;4.00;;;;;8.92;94.09;100731.41;6194882;22;47170;-91
2022/11/25 09:28:49;;;;;;;;;5.00;5.00;;;;;8.49;93.50;100643.16;6196546;22;45240;-91
2022/11/25 09:31:22;;;;;;;;;5.00;5.00;;;;;9.55;93.85;100809.81;6197759;22;45315;-90
2022/11/25 09:36:54;;;;;;;;;2.00;2.00;;;;;9.45;93.40;100768.63;6208131;22;46121;-89
2022/11/25 09:40:03;;;;;;;;;8.00;8.00;;;;;10.92;93.14;100982.38;6195611;22;45396;-90
2022/11/25 09:49:45;;;;;;;;;3.00;1.00;;;;;11.33;92.77;101006.44;6100045;23;46204;-90
2022/11/25 09:52:33;;;;;;;;;5.00;3.00;;;;;11.08;92.51;100945.97;6086840;23;45386;-91
2022/11/25 09:55:22;;;;;;;;;6.25;4.00;;;;;10.82;92.15;100898.78;6072035;23;45359;-90
2022/11/25 09:58:43;;;;;;;;;7.50;4.25;;;;;10.13;91.71;100774.72;6093296;23;45479;-91
2022/11/25 10:02:04;;;;;;;;;3.25;3.25;;;;;11.67;91.98;101032.34;6012230;23;45471;-90
2022/11/25 10:04:57;;;;;;;;;3.50;3.00;;;;;10.66;91.38;100855.88;5987328;23;45420;-92
2022/11/25 10:07:44;;;;;;;;;3.00;3.00;;;;;11.16;90.50;100927.34;6010356;23;45471;-93
2022/11/25 10:10:27;;;;;;;;;3.25;2.50;;;;;11.98;90.12;101047.69;5989083;23;45567;-90
2022/11/25 10:13:07;;;;;;;;;3.00;3.00;;;;;11.58;90.40;100974.25;5990214;23;47247;-91
2022/11/25 10:15:51;;;;;;;;;4.00;3.75;;;;;10.88;89.88;100837.88;5984926;23;44792;-92
2022/11/25 10:18:58;;;;;;;;;4.50;4.50;;;;;11.73;90.25;100952.78;6023108;23;45406;-91
2022/11/25 10:21:32;;;;;;;;;7.00;3.75;;;;;12.53;89.33;101054.59;5902328;24;45635;-91
2022/11/25 10:24:08;;;;;;;;;;;;;;;;;;;;;
2022/11/25 10:26:51;;;;;;;;;3.50;2.50;;;;;11.91;88.41;100911.84;5927303;24;72788;-91
2022/11/25 10:29:28;;;;;;;;;4.00;3.00;;;;;12.16;87.98;100924.59;5931623;24;45435;-93
2022/11/25 10:32:37;;;;;;;;;2.00;1.00;;;;;12.07;86.92;100880.63;5909531;24;45521;-91
2022/11/25 10:35:12;;;;;;;;;5.25;4.75;;;;;12.57;86.23;100936.97;5889647;24;48144;-90
2022/11/25 10:37:53;;;;;;;;;3.25;3.25;;;;;12.65;86.00;100888.16;5935637;23;44691;-92
2022/11/25 10:40:54;;;;;;;;;;;;;;;;;;;;;
2022/11/25 10:54:21;;;;;;;;;2.75;2.75;;;;;14.46;84.17;101070.34;6175996;22;45345;-92
2022/11/25 10:57:01;;;;;;;;;3.50;2.00;;;;;13.36;83.68;100820.06;6218370;22;45722;-91
2022/11/25 10:59:38;;;;;;;;;3.75;3.75;;;;;14.57;82.67;100967.16;6232014;22;44712;-93
2022/11/25 11:02:14;;;;;;;;;5.00;4.75;;;;;15.52;82.09;101088.44;6223571;22;45439;-91
2022/11/25 11:05:29;;;;;;;;;4.25;3.50;;;;;14.81;82.20;100933.63;6229701;22;44721;-92
2022/11/25 11:08:25;;;;;;;;;2.00;2.00;;;;;14.30;81.49;100783.63;6098081;23;47575;-89
2022/11/25 11:14:33;;;;;;;;;;;;;;;;;;;;;
2022/11/25 11:17:47;;;;;;;;;5.00;5.00;;;;;16.91;79.87;101070.25;6217106;22;69310;-92
2022/11/25 11:24:30;;;;;;;;;;;;;;;;;;;;;
2022/11/25 11:31:25;;;;;;;;;;;;;;;;;;;;;
2022/11/25 11:33:53;;;;;;;;;6.00;4.00;;;;;18.69;76.37;101105.66;6097781;23;72862;-92
2022/11/25 11:36:49;;;;;;;;;3.25;2.75;;;;;18.26;76.93;100994.25;6107550;23;45225;-92
2022/11/25 11:39:59;;;;;;;;;6.75;4.00;;;;;18.54;76.48;100963.56;6105425;23;45437;-91
2022/11/25 11:42:58;;;;;;;;;7.00;7.00;;;;;19.29;75.41;101023.34;6013946;23;45662;-93
2022/11/25 11:45:54;;;;;;;;;2.75;2.75;;;;;20.20;73.58;101101.06;6012847;23;46812;-92
2022/11/25 11:48:28;;;;;;;;;5.25;4.00;;;;;20.62;72.71;101107.81;5991240;23;45532;-92
2022/11/25 11:51:02;;;;;;;;;4.75;4.00;;;;;20.32;72.68;100987.69;6013485;23;45421;-93
2022/11/25 11:53:53;;;;;;;;;4.50;2.50;;;;;21.34;72.74;101099.41;6010256;23;45543;-92
2022/11/25 11:57:03;;;;;;;;;2.75;2.75;;;;;21.71;72.34;101103.56;6007448;23;47373;-93
2022/11/25 12:00:03;;;;;;;;;2.50;1.75;;;;;21.73;71.31;101047.84;5979974;23;45179;-92
2022/11/25 12:02:35;;;;;;;;;1.75;1.75;;;;;22.24;71.19;101070.84;5998456;23;45464;-91
2022/11/25 12:05:22;;;;;;;;;;;;;;;;;;;;;
2022/11/25 12:14:56;;;;;;;;;2.50;2.00;;;;;22.99;69.71;100996.06;6003913;23;45509;-92
2022/11/25 12:17:33;;;;;;;;;1.25;1.25;;;;;22.79;69.51;100956.09;6009665;23;45222;-91
2022/11/25 12:20:28;;;;;;;;;1.25;1.25;;;;;24.04;69.89;101128.56;6031904;23;48377;-92
2022/11/25 12:23:05;;;;;;;;;4.00;3.00;;;;;23.34;68.86;100995.59;6065614;23;45267;-90
2022/11/25 12:25:41;;;;;;;;;2.00;2.00;;;;;23.48;69.17;101008.16;6040641;23;45285;-89
2022/11/25 12:28:15;;;;;;;;;3.00;2.25;;;;;23.46;68.98;100990.34;6074754;23;45473;-90
2022/11/25 12:31:05;;;;;;;;;1.75;1.75;;;;;23.03;70.16;100905.97;6079479;23;47109;-90
2022/11/25 12:33:54;;;;;;;;;2.00;2.00;;;;;24.27;69.70;101090.03;6074029;23;45423;-93
2022/11/25 12:36:49;;;;;;;;;;;;;;;;;;;;;
2022/11/25 12:39:47;;;;;;;;;2.25;1.75;;;;;23.63;69.67;100981.97;6076760;23;68626;-92
2022/11/25 12:42:21;;;;;;;;;2.75;2.75;;;;;23.84;68.25;101013.81;6056385;23;47483;-91
2022/11/25 12:59:15;;;;;;;;;3.00;2.50;;;;;21.84;75.13;101170.97;6127163;23;45430;-92
2022/11/25 13:02:01;;;;;;;;;1.75;1.75;;;;;20.46;75.60;101066.59;6071866;23;45315;-92
2022/11/25 13:11:42;;;;;;;;;2.25;2.25;;;;;18.79;79.09;101195.31;6108586;23;45330;-91
2022/11/25 13:14:46;;;;;;;;;3.50;0.50;;;;;17.50;79.53;101079.50;5990408;23;45429;-92
2022/11/25 13:17:14;;;;;;;;;2.50;1.25;;;;;17.75;79.81;101209.47;5983669;23;45368;-92
2022/11/25 13:19:42;;;;;;;;;4.25;1.75;;;;;16.12;79.54;101006.47;5982941;23;47035;-91
2022/11/25 13:22:17;;;;;;;;;2.00;0.75;;;;;16.92;81.06;101194.81;5983920;23;45300;-92
2022/11/25 13:24:43;;;;;;;;;2.25;1.50;;;;;15.92;81.07;101097.78;5978972;23;45315;-91
2022/11/25 13:27:29;;;;;;;;;2.00;2.00;;;;;16.26;81.61;101189.09;5980114;23;45519;-89
2022/11/25 13:29:55;;;;;;;;;3.75;2.00;;;;;15.40;81.50;101096.84;5980950;23;46336;-91
2022/11/25 13:32:25;;;;;;;;;3.75;1.50;;;;;15.75;81.78;101199.59;5984353;23;45211;-90
2022/11/25 13:35:28;;;;;;;;;5.00;4.50;;;;;15.33;82.07;101170.69;6011196;23;45284;-90
2022/11/25 13:37:54;;;;;;;;;4.75;2.25;;;;;14.99;82.09;101150.41;6069436;23;45603;-90
2022/11/25 13:40:22;;;;;;;;;5.25;2.25;;;;;15.15;82.31;101205.88;6067757;23;46234;-91
2022/11/25 13:42:49;;;;;;;;;2.25;2.00;;;;;14.96;82.17;101218.84;6075204;23;45708;-90